sensor_id;sensor_type;location;lat;lon;timestamp;temperature;humidity
8067;DHT22;4076;48.076;9.118;2023-02-03T00:00:27;3.40;99.90
8067;DHT22;4076;48.076;9.118;2023-02-03T00:02:56;3.40;99.90
8067;DHT22;4076;48.076;9.118;2023-02-03T00:05:21;3.40;99.90
8067;DHT22;4076;48.076;9.118;2023-02-03T00:07:47;3.50;99.90
8067;DHT22;4076;48.076;9.118;2023-02-03T00:10:13;3.50;99.90
8067;DHT22;4076;48.076;9.118;2023-02-03T00:12:39;3.50;99.90
8067;DHT22;4076;48.076;9.118;2023-02-03T00:15:05;3.60;99.90
8067;DHT22;4076;48.076;9.118;2023-02-03T00:17:31;3.60;99.90
8067;DHT22;4076;48.076;9.118;2023-02-03T00:19:57;3.60;99.90
8067;DHT22;4076;48.076;9.118;2023-02-03T00:22:22;3.60;99.90
8067;DHT22;4076;48.076;9.118;2023-02-03T00:24:48;3.60;99.90
8067;DHT22;4076;48.076;9.118;2023-02-03T00:27:13;3.60;99.90
8067;DHT22;4076;48.076;9.118;2023-02-03T00:29:39;3.60;99.90
8067;DHT22;4076;48.076;9.118;2023-02-03T00:32:04;3.60;99.90
8067;DHT22;4076;48.076;9.118;2023-02-03T00:34:30;3.60;99.90
8067;DHT22;4076;48.076;9.118;2023-02-03T00:36:56;3.60;99.90
8067;DHT22;4076;48.076;9.118;2023-02-03T00:39:22;3.50;99.90
8067;DHT22;4076;48.076;9.118;2023-02-03T00:41:48;3.50;99.90
8067;DHT22;4076;48.076;9.118;2023-02-03T00:44:14;3.40;99.90
8067;DHT22;4076;48.076;9.118;2023-02-03T00:46:40;3.40;99.90
8067;DHT22;4076;48.076;9.118;2023-02-03T00:49:06;3.40;99.90
8067;DHT22;4076;48.076;9.118;2023-02-03T00:51:32;3.30;99.90
8067;DHT22;4076;48.076;9.118;2023-02-03T00:53:58;3.30;99.90
8067;DHT22;4076;48.076;9.118;2023-02-03T00:56:24;3.30;99.90
8067;DHT22;4076;48.076;9.118;2023-02-03T00:58:50;3.30;99.90
8067;DHT22;4076;48.076;9.118;2023-02-03T01:01:16;3.30;99.90
8067;DHT22;4076;48.076;9.118;2023-02-03T01:03:41;3.30;99.90
8067;DHT22;4076;48.076;9.118;2023-02-03T01:06:27;3.40;99.90
8067;DHT22;4076;48.076;9.118;2023-02-03T01:08:53;3.50;99.90
8067;DHT22;4076;48.076;9.118;2023-02-03T01:11:24;3.50;99.90
8067;DHT22;4076;48.076;9.118;2023-02-03T01:13:56;3.60;99.90
8067;DHT22;4076;48.076;9.118;2023-02-03T01:16:25;3.70;99.90
8067;DHT22;4076;48.076;9.118;2023-02-03T01:18:51;3.70;99.90
8067;DHT22;4076;48.076;9.118;2023-02-03T01:21:21;3.70;99.90
8067;DHT22;4076;48.076;9.118;2023-02-03T01:23:48;3.70;99.90
8067;DHT22;4076;48.076;9.118;2023-02-03T01:26:16;3.80;99.90
8067;DHT22;4076;48.076;9.118;2023-02-03T01:28:42;3.80;99.90
8067;DHT22;4076;48.076;9.118;2023-02-03T01:33:34;3.80;99.90
8067;DHT22;4076;48.076;9.118;2023-02-03T01:36:00;3.90;99.90
8067;DHT22;4076;48.076;9.118;2023-02-03T01:38:26;3.90;99.90
8067;DHT22;4076;48.076;9.118;2023-02-03T01:40:51;4.00;99.90
8067;DHT22;4076;48.076;9.118;2023-02-03T01:43:34;4.00;99.90
8067;DHT22;4076;48.076;9.118;2023-02-03T01:46:03;4.00;99.90
8067;DHT22;4076;48.076;9.118;2023-02-03T01:48:31;3.90;99.90
8067;DHT22;4076;48.076;9.118;2023-02-03T01:51:01;3.90;99.90
8067;DHT22;4076;48.076;9.118;2023-02-03T01:53:26;4.00;99.90
8067;DHT22;4076;48.076;9.118;2023-02-03T01:55:52;4.00;99.90
8067;DHT22;4076;48.076;9.118;2023-02-03T01:58:28;4.00;99.90
8067;DHT22;4076;48.076;9.118;2023-02-03T02:00:55;4.10;99.90
8067;DHT22;4076;48.076;9.118;2023-02-03T02:03:31;4.10;99.90
8067;DHT22;4076;48.076;9.118;2023-02-03T02:06:10;4.10;99.90
8067;DHT22;4076;48.076;9.118;2023-02-03T02:08:37;4.00;99.90
8067;DHT22;4076;48.076;9.118;2023-02-03T02:11:03;4.10;99.90
8067;DHT22;4076;48.076;9.118;2023-02-03T02:13:31;4.10;99.90
8067;DHT22;4076;48.076;9.118;2023-02-03T02:16:09;4.10;99.90
8067;DHT22;4076;48.076;9.118;2023-02-03T02:37:26;4.00;99.90
8067;DHT22;4076;48.076;9.118;2023-02-03T02:45:50;4.00;99.90
8067;DHT22;4076;48.076;9.118;2023-02-03T02:51:06;4.00;99.90
8067;DHT22;4076;48.076;9.118;2023-02-03T02:53:36;4.00;99.90
8067;DHT22;4076;48.076;9.118;2023-02-03T02:56:05;3.90;99.90
8067;DHT22;4076;48.076;9.118;2023-02-03T02:58:34;3.90;99.90
8067;DHT22;4076;48.076;9.118;2023-02-03T03:01:01;4.00;99.90
8067;DHT22;4076;48.076;9.118;2023-02-03T03:03:27;3.90;99.90
8067;DHT22;4076;48.076;9.118;2023-02-03T03:06:05;3.90;99.90
8067;DHT22;4076;48.076;9.118;2023-02-03T03:11:17;3.90;99.90
8067;DHT22;4076;48.076;9.118;2023-02-03T03:13:49;3.90;99.90
8067;DHT22;4076;48.076;9.118;2023-02-03T03:16:17;3.80;99.90
8067;DHT22;4076;48.076;9.118;2023-02-03T03:19:00;3.80;99.90
8067;DHT22;4076;48.076;9.118;2023-02-03T03:21:29;3.80;99.90
8067;DHT22;4076;48.076;9.118;2023-02-03T03:23:58;3.90;99.90
8067;DHT22;4076;48.076;9.118;2023-02-03T03:26:42;3.90;99.90
8067;DHT22;4076;48.076;9.118;2023-02-03T03:29:33;3.90;99.90
8067;DHT22;4076;48.076;9.118;2023-02-03T03:32:00;3.90;99.90
8067;DHT22;4076;48.076;9.118;2023-02-03T03:34:27;3.90;99.90
8067;DHT22;4076;48.076;9.118;2023-02-03T03:37:23;3.90;99.90
8067;DHT22;4076;48.076;9.118;2023-02-03T03:39:59;3.80;99.90
8067;DHT22;4076;48.076;9.118;2023-02-03T03:42:29;3.80;99.90
8067;DHT22;4076;48.076;9.118;2023-02-03T03:50:10;3.80;99.90
8067;DHT22;4076;48.076;9.118;2023-02-03T03:52:38;3.80;99.90
8067;DHT22;4076;48.076;9.118;2023-02-03T03:55:07;3.80;99.90
8067;DHT22;4076;48.076;9.118;2023-02-03T04:00:26;3.80;99.90
8067;DHT22;4076;48.076;9.118;2023-02-03T04:02:54;3.80;99.90
8067;DHT22;4076;48.076;9.118;2023-02-03T04:05:22;3.80;99.90
8067;DHT22;4076;48.076;9.118;2023-02-03T04:07:48;3.80;99.90
8067;DHT22;4076;48.076;9.118;2023-02-03T04:10:30;3.80;99.90
8067;DHT22;4076;48.076;9.118;2023-02-03T04:12:56;3.80;99.90
8067;DHT22;4076;48.076;9.118;2023-02-03T04:15:22;3.80;99.90
8067;DHT22;4076;48.076;9.118;2023-02-03T04:17:48;3.80;99.90
8067;DHT22;4076;48.076;9.118;2023-02-03T04:20:14;3.80;99.90
8067;DHT22;4076;48.076;9.118;2023-02-03T04:22:40;3.80;99.90
8067;DHT22;4076;48.076;9.118;2023-02-03T04:25:06;3.80;99.90
8067;DHT22;4076;48.076;9.118;2023-02-03T04:27:32;3.80;99.90
8067;DHT22;4076;48.076;9.118;2023-02-03T04:29:57;3.80;99.90
8067;DHT22;4076;48.076;9.118;2023-02-03T04:32:23;3.80;99.90
8067;DHT22;4076;48.076;9.118;2023-02-03T04:34:48;3.80;99.90
8067;DHT22;4076;48.076;9.118;2023-02-03T04:37:14;3.80;99.90
8067;DHT22;4076;48.076;9.118;2023-02-03T04:39:39;3.80;99.90
8067;DHT22;4076;48.076;9.118;2023-02-03T04:42:05;3.90;99.90
8067;DHT22;4076;48.076;9.118;2023-02-03T04:44:31;3.90;99.90
8067;DHT22;4076;48.076;9.118;2023-02-03T04:46:56;3.80;99.90
8067;DHT22;4076;48.076;9.118;2023-02-03T04:49:22;3.80;99.90
8067;DHT22;4076;48.076;9.118;2023-02-03T04:51:48;3.80;99.90
8067;DHT22;4076;48.076;9.118;2023-02-03T04:54:14;3.80;99.90
8067;DHT22;4076;48.076;9.118;2023-02-03T04:56:39;3.80;99.90
8067;DHT22;4076;48.076;9.118;2023-02-03T04:59:05;3.80;99.90
8067;DHT22;4076;48.076;9.118;2023-02-03T05:01:31;3.80;99.90
8067;DHT22;4076;48.076;9.118;2023-02-03T05:03:56;3.80;99.90
8067;DHT22;4076;48.076;9.118;2023-02-03T05:06:26;3.80;99.90
8067;DHT22;4076;48.076;9.118;2023-02-03T05:08:57;3.70;99.90
8067;DHT22;4076;48.076;9.118;2023-02-03T05:11:23;3.70;99.90
8067;DHT22;4076;48.076;9.118;2023-02-03T05:13:48;3.70;99.90
8067;DHT22;4076;48.076;9.118;2023-02-03T05:16:14;3.60;99.90
8067;DHT22;4076;48.076;9.118;2023-02-03T05:18:40;3.60;99.90
8067;DHT22;4076;48.076;9.118;2023-02-03T05:21:05;3.60;99.90
8067;DHT22;4076;48.076;9.118;2023-02-03T05:23:31;3.60;99.90
8067;DHT22;4076;48.076;9.118;2023-02-03T05:25:57;3.70;99.90
8067;DHT22;4076;48.076;9.118;2023-02-03T05:28:22;3.70;99.90
8067;DHT22;4076;48.076;9.118;2023-02-03T05:30:48;3.60;99.90
8067;DHT22;4076;48.076;9.118;2023-02-03T05:33:13;3.60;99.90
8067;DHT22;4076;48.076;9.118;2023-02-03T05:35:39;3.60;99.90
8067;DHT22;4076;48.076;9.118;2023-02-03T05:38:05;3.60;99.90
8067;DHT22;4076;48.076;9.118;2023-02-03T05:40:30;3.60;99.90
8067;DHT22;4076;48.076;9.118;2023-02-03T05:43:15;3.60;99.90
8067;DHT22;4076;48.076;9.118;2023-02-03T05:45:40;3.50;99.90
8067;DHT22;4076;48.076;9.118;2023-02-03T05:48:06;3.50;99.90
8067;DHT22;4076;48.076;9.118;2023-02-03T05:50:32;3.40;99.90
8067;DHT22;4076;48.076;9.118;2023-02-03T05:52:59;3.50;99.90
8067;DHT22;4076;48.076;9.118;2023-02-03T05:55:26;3.40;99.90
8067;DHT22;4076;48.076;9.118;2023-02-03T05:57:51;3.40;99.90
8067;DHT22;4076;48.076;9.118;2023-02-03T06:00:17;3.40;99.90
8067;DHT22;4076;48.076;9.118;2023-02-03T06:02:43;3.40;99.90
8067;DHT22;4076;48.076;9.118;2023-02-03T06:05:08;3.40;99.90
8067;DHT22;4076;48.076;9.118;2023-02-03T06:07:34;3.50;99.90
8067;DHT22;4076;48.076;9.118;2023-02-03T06:10:00;3.50;99.90
8067;DHT22;4076;48.076;9.118;2023-02-03T06:12:25;3.40;99.90
8067;DHT22;4076;48.076;9.118;2023-02-03T06:14:51;3.50;99.90
8067;DHT22;4076;48.076;9.118;2023-02-03T06:17:17;3.50;99.90
8067;DHT22;4076;48.076;9.118;2023-02-03T06:19:42;3.50;99.90
8067;DHT22;4076;48.076;9.118;2023-02-03T06:22:08;3.50;99.90
8067;DHT22;4076;48.076;9.118;2023-02-03T06:24:33;3.50;99.90
8067;DHT22;4076;48.076;9.118;2023-02-03T06:26:59;3.50;99.90
8067;DHT22;4076;48.076;9.118;2023-02-03T06:29:24;3.60;99.90
8067;DHT22;4076;48.076;9.118;2023-02-03T06:31:50;3.60;99.90
8067;DHT22;4076;48.076;9.118;2023-02-03T06:34:15;3.60;99.90
8067;DHT22;4076;48.076;9.118;2023-02-03T06:36:41;3.60;99.90
8067;DHT22;4076;48.076;9.118;2023-02-03T06:39:07;3.60;99.90
8067;DHT22;4076;48.076;9.118;2023-02-03T06:41:32;3.60;99.90
8067;DHT22;4076;48.076;9.118;2023-02-03T06:43:58;3.60;99.90
8067;DHT22;4076;48.076;9.118;2023-02-03T06:46:23;3.60;99.90
8067;DHT22;4076;48.076;9.118;2023-02-03T06:48:53;3.60;99.90
8067;DHT22;4076;48.076;9.118;2023-02-03T06:51:19;3.60;99.90
8067;DHT22;4076;48.076;9.118;2023-02-03T06:53:45;3.60;99.90
8067;DHT22;4076;48.076;9.118;2023-02-03T06:56:10;3.60;99.90
8067;DHT22;4076;48.076;9.118;2023-02-03T06:58:36;3.60;99.90
8067;DHT22;4076;48.076;9.118;2023-02-03T07:01:01;3.60;99.90
8067;DHT22;4076;48.076;9.118;2023-02-03T07:03:27;3.60;99.90
8067;DHT22;4076;48.076;9.118;2023-02-03T07:05:53;3.60;99.90
8067;DHT22;4076;48.076;9.118;2023-02-03T07:08:18;3.60;99.90
8067;DHT22;4076;48.076;9.118;2023-02-03T07:10:44;3.60;99.90
8067;DHT22;4076;48.076;9.118;2023-02-03T07:13:09;3.70;99.90
8067;DHT22;4076;48.076;9.118;2023-02-03T07:15:35;3.70;99.90
8067;DHT22;4076;48.076;9.118;2023-02-03T07:18:00;3.70;99.90
8067;DHT22;4076;48.076;9.118;2023-02-03T07:20:26;3.70;99.90
8067;DHT22;4076;48.076;9.118;2023-02-03T07:22:56;3.80;99.90
8067;DHT22;4076;48.076;9.118;2023-02-03T07:25:23;3.80;99.90
8067;DHT22;4076;48.076;9.118;2023-02-03T07:27:49;3.80;99.90
8067;DHT22;4076;48.076;9.118;2023-02-03T07:30:15;3.80;99.90
8067;DHT22;4076;48.076;9.118;2023-02-03T07:32:44;3.80;99.90
8067;DHT22;4076;48.076;9.118;2023-02-03T07:35:10;3.90;99.90
8067;DHT22;4076;48.076;9.118;2023-02-03T07:37:35;3.90;99.90
8067;DHT22;4076;48.076;9.118;2023-02-03T07:40:01;3.90;99.90
8067;DHT22;4076;48.076;9.118;2023-02-03T07:42:27;3.90;99.90
8067;DHT22;4076;48.076;9.118;2023-02-03T07:44:52;4.00;99.90
8067;DHT22;4076;48.076;9.118;2023-02-03T07:47:18;4.00;99.90
8067;DHT22;4076;48.076;9.118;2023-02-03T07:49:43;4.10;99.90
8067;DHT22;4076;48.076;9.118;2023-02-03T07:52:09;4.10;99.90
8067;DHT22;4076;48.076;9.118;2023-02-03T07:54:34;4.20;99.90
8067;DHT22;4076;48.076;9.118;2023-02-03T07:57:00;4.20;99.90
8067;DHT22;4076;48.076;9.118;2023-02-03T07:59:25;4.30;99.90
8067;DHT22;4076;48.076;9.118;2023-02-03T08:01:51;4.30;99.90
8067;DHT22;4076;48.076;9.118;2023-02-03T08:04:21;4.40;99.90
8067;DHT22;4076;48.076;9.118;2023-02-03T08:06:46;4.50;99.90
8067;DHT22;4076;48.076;9.118;2023-02-03T08:09:12;4.40;99.90
8067;DHT22;4076;48.076;9.118;2023-02-03T08:11:37;4.40;99.90
8067;DHT22;4076;48.076;9.118;2023-02-03T08:14:03;4.40;99.90
8067;DHT22;4076;48.076;9.118;2023-02-03T08:16:29;4.30;99.90
8067;DHT22;4076;48.076;9.118;2023-02-03T08:18:54;4.40;99.90
8067;DHT22;4076;48.076;9.118;2023-02-03T08:21:20;4.30;99.90
8067;DHT22;4076;48.076;9.118;2023-02-03T08:23:45;4.30;99.90
8067;DHT22;4076;48.076;9.118;2023-02-03T08:26:11;4.30;99.90
8067;DHT22;4076;48.076;9.118;2023-02-03T08:28:36;4.30;99.90
8067;DHT22;4076;48.076;9.118;2023-02-03T08:31:11;4.30;99.90
8067;DHT22;4076;48.076;9.118;2023-02-03T08:33:37;4.30;99.90
8067;DHT22;4076;48.076;9.118;2023-02-03T08:36:03;4.30;99.90
8067;DHT22;4076;48.076;9.118;2023-02-03T08:38:30;4.40;99.90
8067;DHT22;4076;48.076;9.118;2023-02-03T08:40:56;4.50;99.90
8067;DHT22;4076;48.076;9.118;2023-02-03T08:43:21;4.70;99.90
8067;DHT22;4076;48.076;9.118;2023-02-03T08:45:47;4.90;99.90
8067;DHT22;4076;48.076;9.118;2023-02-03T08:48:12;5.10;99.90
8067;DHT22;4076;48.076;9.118;2023-02-03T08:50:41;5.20;99.90
8067;DHT22;4076;48.076;9.118;2023-02-03T08:53:07;5.10;99.90
8067;DHT22;4076;48.076;9.118;2023-02-03T08:55:33;5.20;99.90
8067;DHT22;4076;48.076;9.118;2023-02-03T08:57:59;5.20;99.90
8067;DHT22;4076;48.076;9.118;2023-02-03T09:00:24;5.20;99.90
8067;DHT22;4076;48.076;9.118;2023-02-03T09:02:50;5.30;99.90
8067;DHT22;4076;48.076;9.118;2023-02-03T09:05:16;5.50;99.90
8067;DHT22;4076;48.076;9.118;2023-02-03T09:07:43;5.60;99.90
8067;DHT22;4076;48.076;9.118;2023-02-03T09:10:09;5.70;99.90
8067;DHT22;4076;48.076;9.118;2023-02-03T09:12:34;5.70;99.90
8067;DHT22;4076;48.076;9.118;2023-02-03T09:15:00;5.80;99.90
8067;DHT22;4076;48.076;9.118;2023-02-03T09:17:26;5.90;99.90
8067;DHT22;4076;48.076;9.118;2023-02-03T09:19:52;5.90;99.90
8067;DHT22;4076;48.076;9.118;2023-02-03T09:22:18;5.80;99.90
8067;DHT22;4076;48.076;9.118;2023-02-03T09:24:43;5.70;99.90
8067;DHT22;4076;48.076;9.118;2023-02-03T09:27:09;5.70;99.90
8067;DHT22;4076;48.076;9.118;2023-02-03T09:29:34;5.60;99.90
8067;DHT22;4076;48.076;9.118;2023-02-03T09:32:00;5.50;99.90
8067;DHT22;4076;48.076;9.118;2023-02-03T09:34:31;5.50;99.90
8067;DHT22;4076;48.076;9.118;2023-02-03T09:36:56;5.50;99.90
8067;DHT22;4076;48.076;9.118;2023-02-03T09:39:22;5.50;99.90
8067;DHT22;4076;48.076;9.118;2023-02-03T09:45:20;5.60;99.90
8067;DHT22;4076;48.076;9.118;2023-02-03T09:47:48;5.60;99.90
8067;DHT22;4076;48.076;9.118;2023-02-03T09:50:25;5.60;99.90
8067;DHT22;4076;48.076;9.118;2023-02-03T09:52:52;5.70;99.90
8067;DHT22;4076;48.076;9.118;2023-02-03T09:55:38;5.80;99.90
8067;DHT22;4076;48.076;9.118;2023-02-03T09:58:12;5.90;99.90
8067;DHT22;4076;48.076;9.118;2023-02-03T10:00:55;6.00;99.90
8067;DHT22;4076;48.076;9.118;2023-02-03T10:03:28;6.00;99.90
8067;DHT22;4076;48.076;9.118;2023-02-03T10:09:11;6.20;99.90
8067;DHT22;4076;48.076;9.118;2023-02-03T10:14:58;6.90;99.90
8067;DHT22;4076;48.076;9.118;2023-02-03T10:17:41;7.50;99.90
8067;DHT22;4076;48.076;9.118;2023-02-03T10:20:17;8.00;99.90
8067;DHT22;4076;48.076;9.118;2023-02-03T10:22:52;8.10;99.90
8067;DHT22;4076;48.076;9.118;2023-02-03T10:25:32;8.10;99.90
8067;DHT22;4076;48.076;9.118;2023-02-03T10:28:03;7.80;99.90
8067;DHT22;4076;48.076;9.118;2023-02-03T10:30:38;7.60;99.90
8067;DHT22;4076;48.076;9.118;2023-02-03T10:33:15;7.50;99.90
8067;DHT22;4076;48.076;9.118;2023-02-03T10:41:21;7.30;99.90
8067;DHT22;4076;48.076;9.118;2023-02-03T10:43:49;7.30;99.90
8067;DHT22;4076;48.076;9.118;2023-02-03T10:46:26;7.30;99.90
8067;DHT22;4076;48.076;9.118;2023-02-03T10:48:52;7.30;99.90
8067;DHT22;4076;48.076;9.118;2023-02-03T10:51:19;7.20;99.90
8067;DHT22;4076;48.076;9.118;2023-02-03T10:53:46;7.20;99.90
8067;DHT22;4076;48.076;9.118;2023-02-03T10:56:13;7.10;99.90
8067;DHT22;4076;48.076;9.118;2023-02-03T10:58:50;7.10;99.90
8067;DHT22;4076;48.076;9.118;2023-02-03T11:01:20;7.00;99.90
8067;DHT22;4076;48.076;9.118;2023-02-03T11:04:01;7.00;99.90
8067;DHT22;4076;48.076;9.118;2023-02-03T11:06:31;7.00;99.90
8067;DHT22;4076;48.076;9.118;2023-02-03T11:08:57;7.00;99.90
8067;DHT22;4076;48.076;9.118;2023-02-03T11:11:30;7.00;99.90
8067;DHT22;4076;48.076;9.118;2023-02-03T11:16:27;7.30;99.90
8067;DHT22;4076;48.076;9.118;2023-02-03T11:19:04;7.30;99.90
8067;DHT22;4076;48.076;9.118;2023-02-03T11:24:19;7.30;99.90
8067;DHT22;4076;48.076;9.118;2023-02-03T11:27:02;7.30;99.90
8067;DHT22;4076;48.076;9.118;2023-02-03T11:29:36;7.30;99.90
8067;DHT22;4076;48.076;9.118;2023-02-03T11:32:24;7.20;99.90
8067;DHT22;4076;48.076;9.118;2023-02-03T11:37:37;7.20;99.90
8067;DHT22;4076;48.076;9.118;2023-02-03T11:42:34;7.20;99.90
8067;DHT22;4076;48.076;9.118;2023-02-03T11:45:38;7.30;99.90
8067;DHT22;4076;48.076;9.118;2023-02-03T11:50:59;7.90;99.90
8067;DHT22;4076;48.076;9.118;2023-02-03T11:56:50;8.30;99.90
8067;DHT22;4076;48.076;9.118;2023-02-03T12:10:29;9.10;94.60
8067;DHT22;4076;48.076;9.118;2023-02-03T12:13:14;9.00;92.00
8067;DHT22;4076;48.076;9.118;2023-02-03T12:16:13;8.80;91.40
8067;DHT22;4076;48.076;9.118;2023-02-03T12:21:42;8.40;89.30
8067;DHT22;4076;48.076;9.118;2023-02-03T12:24:29;8.30;87.80
8067;DHT22;4076;48.076;9.118;2023-02-03T12:27:15;8.20;88.20
8067;DHT22;4076;48.076;9.118;2023-02-03T12:29:59;8.20;88.40
8067;DHT22;4076;48.076;9.118;2023-02-03T12:32:53;8.30;89.00
8067;DHT22;4076;48.076;9.118;2023-02-03T12:35:33;8.40;88.50
8067;DHT22;4076;48.076;9.118;2023-02-03T12:38:14;8.40;85.90
8067;DHT22;4076;48.076;9.118;2023-02-03T12:40:51;8.30;86.90
8067;DHT22;4076;48.076;9.118;2023-02-03T12:45:59;8.10;85.60
8067;DHT22;4076;48.076;9.118;2023-02-03T12:48:33;8.00;85.80
8067;DHT22;4076;48.076;9.118;2023-02-03T12:51:05;8.00;85.00
8067;DHT22;4076;48.076;9.118;2023-02-03T12:53:38;8.00;85.20
8067;DHT22;4076;48.076;9.118;2023-02-03T12:56:13;8.00;84.90
8067;DHT22;4076;48.076;9.118;2023-02-03T12:58:57;8.00;85.30
8067;DHT22;4076;48.076;9.118;2023-02-03T13:01:30;8.00;85.20
8067;DHT22;4076;48.076;9.118;2023-02-03T13:04:10;8.10;85.10
8067;DHT22;4076;48.076;9.118;2023-02-03T13:12:34;8.10;82.40
8067;DHT22;4076;48.076;9.118;2023-02-03T13:18:02;8.10;81.80
8067;DHT22;4076;48.076;9.118;2023-02-03T13:20:31;8.10;80.40
8067;DHT22;4076;48.076;9.118;2023-02-03T13:23:03;8.00;80.60
8067;DHT22;4076;48.076;9.118;2023-02-03T13:25:40;7.90;80.30
8067;DHT22;4076;48.076;9.118;2023-02-03T13:42:29;7.80;81.40
8067;DHT22;4076;48.076;9.118;2023-02-03T13:45:43;7.70;80.30
8067;DHT22;4076;48.076;9.118;2023-02-03T13:47:49;7.70;80.80
8067;DHT22;4076;48.076;9.118;2023-02-03T13:50:27;7.70;81.60
8067;DHT22;4076;48.076;9.118;2023-02-03T13:55:38;7.60;81.50
8067;DHT22;4076;48.076;9.118;2023-02-03T13:58:17;7.60;81.00
8067;DHT22;4076;48.076;9.118;2023-02-03T14:03:16;7.50;80.10
8067;DHT22;4076;48.076;9.118;2023-02-03T14:05:47;7.40;80.30
8067;DHT22;4076;48.076;9.118;2023-02-03T14:16:38;7.10;81.40
8067;DHT22;4076;48.076;9.118;2023-02-03T14:19:12;7.00;80.90
8067;DHT22;4076;48.076;9.118;2023-02-03T14:21:50;7.00;81.70
8067;DHT22;4076;48.076;9.118;2023-02-03T14:24:17;6.90;82.30
8067;DHT22;4076;48.076;9.118;2023-02-03T14:26:47;6.90;82.80
8067;DHT22;4076;48.076;9.118;2023-02-03T14:29:31;6.90;83.20
8067;DHT22;4076;48.076;9.118;2023-02-03T14:32:05;6.90;83.30
8067;DHT22;4076;48.076;9.118;2023-02-03T14:34:46;6.80;83.40
8067;DHT22;4076;48.076;9.118;2023-02-03T14:37:20;6.80;83.30
8067;DHT22;4076;48.076;9.118;2023-02-03T14:42:41;6.90;84.60
8067;DHT22;4076;48.076;9.118;2023-02-03T14:45:38;7.00;84.70
8067;DHT22;4076;48.076;9.118;2023-02-03T14:48:38;7.10;83.80
8067;DHT22;4076;48.076;9.118;2023-02-03T14:54:16;7.10;84.70
8067;DHT22;4076;48.076;9.118;2023-02-03T14:59:58;7.10;84.30
8067;DHT22;4076;48.076;9.118;2023-02-03T15:02:27;7.00;84.40
8067;DHT22;4076;48.076;9.118;2023-02-03T15:07:46;6.90;85.00
8067;DHT22;4076;48.076;9.118;2023-02-03T15:10:23;6.80;85.00
8067;DHT22;4076;48.076;9.118;2023-02-03T15:12:56;6.80;84.90
8067;DHT22;4076;48.076;9.118;2023-02-03T15:15:27;6.80;84.90
8067;DHT22;4076;48.076;9.118;2023-02-03T15:17:58;6.70;84.90
8067;DHT22;4076;48.076;9.118;2023-02-03T15:23:00;6.60;85.60
8067;DHT22;4076;48.076;9.118;2023-02-03T15:25:28;6.60;86.70
8067;DHT22;4076;48.076;9.118;2023-02-03T15:27:54;6.50;86.50
8067;DHT22;4076;48.076;9.118;2023-02-03T15:30:33;6.50;86.70
8067;DHT22;4076;48.076;9.118;2023-02-03T15:33:04;6.50;86.30
8067;DHT22;4076;48.076;9.118;2023-02-03T15:35:33;6.40;86.50
8067;DHT22;4076;48.076;9.118;2023-02-03T15:38:03;6.40;87.00
8067;DHT22;4076;48.076;9.118;2023-02-03T15:40:36;6.40;87.90
8067;DHT22;4076;48.076;9.118;2023-02-03T15:46:15;6.30;89.00
8067;DHT22;4076;48.076;9.118;2023-02-03T15:49:01;6.30;89.10
8067;DHT22;4076;48.076;9.118;2023-02-03T15:51:35;6.30;88.40
8067;DHT22;4076;48.076;9.118;2023-02-03T15:56:45;6.20;90.00
8067;DHT22;4076;48.076;9.118;2023-02-03T15:59:20;6.20;90.40
8067;DHT22;4076;48.076;9.118;2023-02-03T16:01:46;6.10;90.50
8067;DHT22;4076;48.076;9.118;2023-02-03T16:04:12;6.10;90.60
8067;DHT22;4076;48.076;9.118;2023-02-03T16:06:39;6.10;90.80
8067;DHT22;4076;48.076;9.118;2023-02-03T16:09:26;6.10;90.90
8067;DHT22;4076;48.076;9.118;2023-02-03T16:12:15;6.10;91.50
8067;DHT22;4076;48.076;9.118;2023-02-03T16:14:42;6.00;91.80
8067;DHT22;4076;48.076;9.118;2023-02-03T16:17:27;6.00;91.90
8067;DHT22;4076;48.076;9.118;2023-02-03T16:22:58;6.00;92.10
8067;DHT22;4076;48.076;9.118;2023-02-03T16:25:27;6.00;92.20
8067;DHT22;4076;48.076;9.118;2023-02-03T16:28:12;6.00;92.60
8067;DHT22;4076;48.076;9.118;2023-02-03T16:31:15;6.00;92.90
8067;DHT22;4076;48.076;9.118;2023-02-03T16:34:10;6.00;92.70
8067;DHT22;4076;48.076;9.118;2023-02-03T16:36:55;6.00;93.00
8067;DHT22;4076;48.076;9.118;2023-02-03T16:39:39;6.00;93.30
8067;DHT22;4076;48.076;9.118;2023-02-03T16:42:22;6.00;93.70
8067;DHT22;4076;48.076;9.118;2023-02-03T16:45:16;5.90;93.60
8067;DHT22;4076;48.076;9.118;2023-02-03T16:48:01;5.90;94.10
8067;DHT22;4076;48.076;9.118;2023-02-03T16:50:46;5.90;94.30
8067;DHT22;4076;48.076;9.118;2023-02-03T16:53:24;5.80;94.10
8067;DHT22;4076;48.076;9.118;2023-02-03T16:55:52;5.90;94.80
8067;DHT22;4076;48.076;9.118;2023-02-03T16:58:18;5.80;95.40
8067;DHT22;4076;48.076;9.118;2023-02-03T17:00:45;5.80;95.50
8067;DHT22;4076;48.076;9.118;2023-02-03T17:03:16;5.80;95.50
8067;DHT22;4076;48.076;9.118;2023-02-03T17:05:43;5.80;95.80
8067;DHT22;4076;48.076;9.118;2023-02-03T17:08:09;5.80;96.20
8067;DHT22;4076;48.076;9.118;2023-02-03T17:10:36;5.80;96.10
8067;DHT22;4076;48.076;9.118;2023-02-03T17:13:03;5.80;96.60
8067;DHT22;4076;48.076;9.118;2023-02-03T17:15:28;5.80;97.20
8067;DHT22;4076;48.076;9.118;2023-02-03T17:17:54;5.80;97.20
8067;DHT22;4076;48.076;9.118;2023-02-03T17:20:19;5.70;97.40
8067;DHT22;4076;48.076;9.118;2023-02-03T17:22:45;5.70;97.90
8067;DHT22;4076;48.076;9.118;2023-02-03T17:25:11;5.70;98.20
8067;DHT22;4076;48.076;9.118;2023-02-03T17:27:36;5.80;97.90
8067;DHT22;4076;48.076;9.118;2023-02-03T17:30:03;5.80;97.90
8067;DHT22;4076;48.076;9.118;2023-02-03T17:32:29;5.80;98.40
8067;DHT22;4076;48.076;9.118;2023-02-03T17:34:54;5.80;98.70
8067;DHT22;4076;48.076;9.118;2023-02-03T17:37:20;5.80;99.00
8067;DHT22;4076;48.076;9.118;2023-02-03T17:39:46;5.80;98.90
8067;DHT22;4076;48.076;9.118;2023-02-03T17:42:11;5.80;99.30
8067;DHT22;4076;48.076;9.118;2023-02-03T17:44:37;5.70;99.40
8067;DHT22;4076;48.076;9.118;2023-02-03T17:47:03;5.70;99.80
8067;DHT22;4076;48.076;9.118;2023-02-03T17:49:29;5.70;99.90
8067;DHT22;4076;48.076;9.118;2023-02-03T17:51:54;5.70;99.90
8067;DHT22;4076;48.076;9.118;2023-02-03T17:54:20;5.70;99.90
8067;DHT22;4076;48.076;9.118;2023-02-03T17:56:46;5.70;99.90
8067;DHT22;4076;48.076;9.118;2023-02-03T17:59:14;5.70;99.90
8067;DHT22;4076;48.076;9.118;2023-02-03T18:01:39;5.70;99.90
8067;DHT22;4076;48.076;9.118;2023-02-03T18:04:06;5.70;99.90
8067;DHT22;4076;48.076;9.118;2023-02-03T18:06:33;5.70;99.90
8067;DHT22;4076;48.076;9.118;2023-02-03T18:09:01;5.60;99.90
8067;DHT22;4076;48.076;9.118;2023-02-03T18:11:29;5.60;99.90
8067;DHT22;4076;48.076;9.118;2023-02-03T18:13:55;5.60;99.90
8067;DHT22;4076;48.076;9.118;2023-02-03T18:16:24;5.60;99.90
8067;DHT22;4076;48.076;9.118;2023-02-03T18:18:51;5.60;99.90
8067;DHT22;4076;48.076;9.118;2023-02-03T18:21:19;5.60;99.90
8067;DHT22;4076;48.076;9.118;2023-02-03T18:23:45;5.60;99.90
8067;DHT22;4076;48.076;9.118;2023-02-03T18:26:12;5.60;99.90
8067;DHT22;4076;48.076;9.118;2023-02-03T18:28:38;5.60;99.90
8067;DHT22;4076;48.076;9.118;2023-02-03T18:31:06;5.60;99.90
8067;DHT22;4076;48.076;9.118;2023-02-03T18:33:34;5.60;99.90
8067;DHT22;4076;48.076;9.118;2023-02-03T18:36:01;5.60;99.90
8067;DHT22;4076;48.076;9.118;2023-02-03T18:38:28;5.60;99.90
8067;DHT22;4076;48.076;9.118;2023-02-03T18:40:55;5.60;99.90
8067;DHT22;4076;48.076;9.118;2023-02-03T18:43:22;5.60;99.90
8067;DHT22;4076;48.076;9.118;2023-02-03T18:45:48;5.60;99.90
8067;DHT22;4076;48.076;9.118;2023-02-03T18:48:14;5.60;99.90
8067;DHT22;4076;48.076;9.118;2023-02-03T18:50:41;5.60;99.90
8067;DHT22;4076;48.076;9.118;2023-02-03T18:53:07;5.60;99.90
8067;DHT22;4076;48.076;9.118;2023-02-03T18:55:32;5.60;99.90
8067;DHT22;4076;48.076;9.118;2023-02-03T18:57:58;5.60;99.90
8067;DHT22;4076;48.076;9.118;2023-02-03T19:00:23;5.60;99.90
8067;DHT22;4076;48.076;9.118;2023-02-03T19:02:50;5.60;99.90